Time;durP1;ratioP1;P1;durP2;ratioP2;P2;SDS_P1;SDS_P2;PMS_P1;PMS_P2;Temp;Humidity;BMP_temperature;BMP_pressure;BME280_temperature;BME280_humidity;BME280_pressure;Samples;Min_cycle;Max_cycle;Signal;HPM_P1;HPM_P2
2022/01/15 00:00:10;;;;;;;99.05;71.85;;;;;;;2.43;79.60;98977.22;1736896;82;21017;-57
2022/01/15 00:02:39;;;;;;;23.20;10.15;;;;;;;2.36;79.97;98978.53;1712960;82;21002;-57
2022/01/15 00:05:07;;;;;;;14.07;6.30;;;;;;;2.40;79.76;98989.16;1712622;83;21069;-57
2022/01/15 00:07:34;;;;;;;12.23;5.57;;;;;;;2.43;79.63;98985.23;1712796;82;21436;-57
2022/01/15 00:10:01;;;;;;;43.90;29.27;;;;;;;2.43;79.71;98987.40;1712378;83;21143;-57
2022/01/15 00:12:35;;;;;;;17.37;8.28;;;;;;;2.44;79.97;98990.38;1729321;82;21052;-57
2022/01/15 00:14:56;;;;;;;29.25;15.03;;;;;;;2.46;79.66;98981.63;1736339;82;21008;-57
2022/01/15 00:20:10;;;;;;;17.75;6.55;;;;;;;2.49;79.76;98979.08;1737009;82;21319;-57
2022/01/15 00:22:38;;;;;;;13.58;6.30;;;;;;;2.52;79.79;98971.45;1731649;82;37452;-57
2022/01/15 00:25:06;;;;;;;15.55;7.20;;;;;;;2.55;79.76;98963.52;1737060;82;21465;-57
2022/01/15 00:27:33;;;;;;;20.15;9.85;;;;;;;2.59;79.80;98974.66;1713169;82;21511;-57
2022/01/15 00:30:00;;;;;;;15.68;7.47;;;;;;;2.60;79.65;98969.61;1712616;83;21082;-57
2022/01/15 00:32:27;;;;;;;17.80;7.85;;;;;;;2.62;79.38;98971.56;1691031;83;21414;-57
2022/01/15 00:34:53;;;;;;;19.40;8.30;;;;;;;2.56;79.46;98974.53;1710238;83;20997;-57
2022/01/15 00:37:20;;;;;;;27.42;9.63;;;;;;;2.58;79.50;98975.69;1713417;82;21081;-57
2022/01/15 00:39:47;;;;;;;19.32;8.38;;;;;;;2.60;79.49;98974.97;1712444;83;21467;-57
2022/01/15 00:42:14;;;;;;;16.82;6.83;;;;;;;2.55;79.28;98977.73;1709702;82;21000;-57
2022/01/15 00:44:42;;;;;;;16.30;5.65;;;;;;;2.52;79.07;98970.63;1707762;83;21323;-57
2022/01/15 00:47:09;;;;;;;19.07;7.12;;;;;;;2.43;79.19;98970.01;1729219;82;20985;-57
2022/01/15 00:49:36;;;;;;;17.62;7.00;;;;;;;2.40;79.17;98969.61;1708869;82;21000;-57
2022/01/15 00:52:03;;;;;;;14.65;6.28;;;;;;;2.37;79.28;98974.83;1710185;82;20987;-57
2022/01/15 00:54:30;;;;;;;14.98;7.42;;;;;;;2.37;79.32;98975.34;1712660;83;21419;-57
2022/01/15 00:56:57;;;;;;;18.98;7.12;;;;;;;2.35;79.20;98972.05;1723779;82;21276;-58
2022/01/15 00:59:24;;;;;;;25.43;11.10;;;;;;;2.33;79.24;98970.11;1737238;82;21025;-57
2022/01/15 01:01:50;;;;;;;19.67;9.68;;;;;;;2.31;79.12;98968.98;1736850;82;20977;-56
2022/01/15 01:04:17;;;;;;;17.05;6.30;;;;;;;2.28;79.03;98972.04;1737283;82;21009;-57
2022/01/15 01:06:44;;;;;;;16.30;8.15;;;;;;;2.24;78.95;98972.15;1736769;82;21015;-57
2022/01/15 01:09:11;;;;;;;19.92;9.80;;;;;;;2.18;78.98;98976.45;1737355;82;21409;-56
2022/01/15 01:11:45;;;;;;;15.95;7.60;;;;;;;2.12;79.50;98983.11;1722117;82;21094;-57
2022/01/15 01:24:53;;;;;;;18.35;9.08;;;;;;;2.00;79.03;98992.23;1712097;83;21035;-57
2022/01/15 01:27:28;;;;;;;19.15;6.85;;;;;;;2.00;79.23;98998.09;1718585;82;21019;-57
2022/01/15 01:30:13;;;;;;;24.50;14.18;;;;;;;2.03;79.28;99005.70;1713095;82;21036;-57
2022/01/15 01:35:12;;;;;;;18.90;7.17;;;;;;;1.93;79.24;98999.41;1736892;82;22019;-57
2022/01/15 01:37:40;;;;;;;17.02;12.75;;;;;;;1.91;79.12;98998.79;1726020;82;21008;-57
2022/01/15 01:40:22;;;;;;;12.93;6.20;;;;;;;1.87;79.12;98998.86;1736643;82;21414;-57
2022/01/15 01:43:06;;;;;;;14.45;7.00;;;;;;;1.86;79.25;98992.69;1736921;82;21064;-57
2022/01/15 01:45:24;;;;;;;21.35;7.50;;;;;;;1.84;79.26;98983.23;1734276;82;21048;-57
2022/01/15 01:47:51;;;;;;;20.68;6.10;;;;;;;1.84;79.27;98989.41;1730123;82;21360;-57
2022/01/15 01:50:24;;;;;;;18.20;7.97;;;;;;;1.82;79.23;98987.96;1707001;82;21019;-57
2022/01/15 01:52:58;;;;;;;22.93;8.45;;;;;;;1.80;79.23;98986.01;1712460;82;20983;-56
2022/01/15 01:55:26;;;;;;;20.25;6.85;;;;;;;1.77;79.20;98988.55;1712465;82;20990;-57
2022/01/15 01:57:55;;;;;;;18.37;7.60;;;;;;;1.74;79.24;98990.30;1712768;82;21030;-57
2022/01/15 02:00:23;;;;;;;23.77;12.00;;;;;;;1.70;79.18;98985.84;1712471;82;21324;-57
2022/01/15 02:02:51;;;;;;;17.62;9.28;;;;;;;1.68;79.19;98991.08;1712749;82;20979;-57
2022/01/15 02:05:18;;;;;;;17.15;8.30;;;;;;;1.66;79.25;98984.61;1712374;82;21090;-56
2022/01/15 02:07:45;;;;;;;17.80;9.95;;;;;;;1.66;79.26;98989.95;1731857;82;21084;-57
2022/01/15 02:10:14;;;;;;;16.45;7.80;;;;;;;1.64;79.26;98987.99;1737247;82;21037;-56
2022/01/15 02:12:42;;;;;;;15.95;6.90;;;;;;;1.61;79.17;98985.70;1736818;82;21004;-57
2022/01/15 02:15:13;;;;;;;15.98;7.45;;;;;;;1.57;79.14;98991.14;1736926;82;21075;-57
2022/01/15 02:17:41;;;;;;;19.85;8.23;;;;;;;1.55;79.24;98981.69;1732369;82;21028;-57
2022/01/15 02:25:53;;;;;;;15.18;6.58;;;;;;;1.53;79.18;98977.02;1717302;82;21762;-57
2022/01/15 02:28:26;;;;;;;22.10;10.90;;;;;;;1.52;79.30;98975.38;1736234;82;21544;-57
2022/01/15 02:30:55;;;;;;;20.62;9.95;;;;;;;1.52;79.35;98972.20;1730180;82;21113;-57
2022/01/15 02:33:22;;;;;;;24.90;8.50;;;;;;;1.54;79.31;98980.01;1712626;83;20971;-57
2022/01/15 02:35:49;;;;;;;23.62;8.68;;;;;;;1.53;79.26;98975.69;1712414;82;21505;-57
2022/01/15 02:38:16;;;;;;;19.98;10.08;;;;;;;1.53;79.32;98979.19;1712527;83;21546;-57
2022/01/15 02:40:43;;;;;;;13.83;7.85;;;;;;;1.58;79.27;98983.95;1701245;83;20988;-57
2022/01/15 02:43:14;;;;;;;18.48;7.33;;;;;;;1.55;78.98;98989.19;1712684;82;21077;-57
2022/01/15 02:45:44;;;;;;;22.15;8.05;;;;;;;1.52;79.04;98985.55;1712461;82;20998;-56
2022/01/15 02:48:12;;;;;;;;;;;;;;;1.48;79.06;98986.98;1752745;80;21498;-56
2022/01/15 02:50:40;;;;;;;20.40;8.13;;;;;;;1.47;79.11;98992.53;1763212;80;21406;-55
2022/01/15 02:53:08;;;;;;;27.57;10.30;;;;;;;1.43;79.09;98992.59;1713753;82;21093;-56
2022/01/15 02:55:36;;;;;;;16.82;7.95;;;;;;;1.39;79.17;99001.02;1727339;80;21023;-56
2022/01/15 02:58:02;;;;;;;14.47;7.92;;;;;;;1.39;79.33;99006.36;1712789;82;21058;-56
2022/01/15 03:00:29;;;;;;;16.75;9.03;;;;;;;1.40;79.26;98997.31;1712373;82;21468;-56
2022/01/15 03:02:56;;;;;;;20.40;8.10;;;;;;;1.40;79.51;98999.17;1712337;82;21546;-56
2022/01/15 03:05:23;;;;;;;22.77;7.47;;;;;;;1.44;79.67;99000.41;1712277;82;21051;-56
2022/01/15 03:07:50;;;;;;;17.75;8.03;;;;;;;1.49;79.67;98998.49;1712237;82;21385;-55
2022/01/15 03:10:17;;;;;;;18.23;8.45;;;;;;;1.51;79.69;98995.93;1712387;82;21042;-56
2022/01/15 03:12:44;;;;;;;29.70;8.45;;;;;;;1.54;79.68;99003.57;1712216;82;21015;-56
2022/01/15 03:15:17;;;;;;;20.45;9.53;;;;;;;1.57;79.58;99003.16;1712622;82;21023;-56
2022/01/15 03:17:41;;;;;;;18.15;9.15;;;;;;;1.56;79.48;99004.19;1736957;82;21056;-56
2022/01/15 03:20:09;;;;;;;23.57;9.80;;;;;;;1.58;79.62;99004.80;1737249;82;21184;-56
2022/01/15 03:22:36;;;;;;;25.23;10.73;;;;;;;1.61;79.65;99006.25;1732065;82;21524;-56
2022/01/15 03:25:04;;;;;;;19.90;10.43;;;;;;;1.62;79.68;99006.56;1737177;82;21171;-56
2022/01/15 03:27:31;;;;;;;22.35;10.05;;;;;;;1.62;79.57;99016.77;1737121;82;24236;-56
2022/01/15 03:29:58;;;;;;;26.57;10.65;;;;;;;1.60;79.59;99016.11;1737243;82;21067;-56
2022/01/15 03:32:25;;;;;;;23.73;11.12;;;;;;;1.62;79.62;99019.44;1736882;82;21517;-56
2022/01/15 03:34:52;;;;;;;23.50;10.40;;;;;;;1.62;79.54;99019.92;1736720;82;21021;-56
2022/01/15 03:37:19;;;;;;;22.22;9.25;;;;;;;1.61;79.45;99014.27;1731691;82;21075;-56
2022/01/15 03:39:46;;;;;;;17.52;8.85;;;;;;;1.55;79.25;99023.09;1737125;82;21396;-56
2022/01/15 03:42:13;;;;;;;22.45;10.40;;;;;;;1.53;79.44;99012.58;1716611;82;21040;-56
2022/01/15 03:44:48;;;;;;;27.37;14.10;;;;;;;1.56;79.45;99012.72;1712712;82;21026;-56
2022/01/15 03:47:15;;;;;;;28.73;10.78;;;;;;;1.55;79.28;99009.22;1727045;82;21015;-56
2022/01/15 03:49:42;;;;;;;20.57;9.13;;;;;;;1.51;79.25;99019.97;1707866;83;21071;-56
2022/01/15 03:52:09;;;;;;;25.45;11.18;;;;;;;1.50;79.37;99014.31;1727245;82;22015;-56
2022/01/15 03:54:37;;;;;;;24.12;10.95;;;;;;;1.50;79.15;99012.16;1735640;80;21535;-56
2022/01/15 03:57:04;;;;;;;22.60;9.93;;;;;;;1.44;79.20;99014.27;1712285;82;21415;-56
2022/01/15 03:59:31;;;;;;;18.87;9.30;;;;;;;1.45;79.30;99023.42;1712529;82;21452;-56
2022/01/15 04:01:57;;;;;;;33.20;14.75;;;;;;;1.41;79.02;99024.34;1729727;82;21020;-56
2022/01/15 04:04:24;;;;;;;17.10;9.65;;;;;;;1.26;78.87;99022.80;1737152;82;21403;-56
2022/01/15 04:06:51;;;;;;;23.15;9.08;;;;;;;1.21;79.17;99027.41;1736719;82;20985;-57
2022/01/15 04:09:18;;;;;;;19.95;8.58;;;;;;;1.18;79.18;99025.10;1737186;82;21064;-56
2022/01/15 04:11:45;;;;;;;17.30;7.70;;;;;;;1.15;79.12;99024.17;1736850;82;21067;-56
2022/01/15 04:14:12;;;;;;;19.65;9.25;;;;;;;1.10;78.95;99018.06;1737257;82;21489;-55
2022/01/15 04:16:39;;;;;;;22.13;9.08;;;;;;;1.01;79.02;99020.56;1723140;82;21358;-56
2022/01/15 04:19:07;;;;;;;18.82;8.55;;;;;;;1.00;79.11;99019.43;1712718;82;21293;-55
2022/01/15 04:21:35;;;;;;;20.72;9.60;;;;;;;0.97;79.09;99021.98;1712521;82;21057;-56
2022/01/15 04:24:03;;;;;;;16.80;6.63;;;;;;;0.95;79.08;99019.20;1712964;83;21479;-56
2022/01/15 04:26:30;;;;;;;24.35;10.20;;;;;;;0.91;79.09;99022.75;1725447;82;21580;-56
2022/01/15 04:29:06;;;;;;;22.22;8.53;;;;;;;0.86;78.96;99031.03;1737201;82;21274;-56
2022/01/15 04:31:45;;;;;;;18.50;7.70;;;;;;;0.80;79.05;99033.95;1734859;82;21115;-55
2022/01/15 04:33:59;;;;;;;20.00;7.00;;;;;;;0.78;79.19;99032.81;1734049;82;21591;-56
2022/01/15 04:36:26;;;;;;;17.35;7.80;;;;;;;0.81;79.23;99029.75;1730821;82;21043;-56
2022/01/15 04:38:53;;;;;;;23.73;8.50;;;;;;;0.86;79.26;99029.19;1712682;83;21010;-56
2022/01/15 04:41:20;;;;;;;20.95;8.58;;;;;;;0.87;79.26;99021.50;1712410;82;21382;-56
2022/01/15 04:43:47;;;;;;;18.62;7.28;;;;;;;0.90;79.24;99033.63;1712502;83;21050;-55
2022/01/15 04:46:14;;;;;;;21.87;9.20;;;;;;;0.86;79.01;99029.70;1712412;82;21007;-55
2022/01/15 04:48:41;;;;;;;26.48;9.28;;;;;;;0.77;78.67;99030.31;1747910;80;21474;-56
2022/01/15 04:51:08;;;;;;;19.32;7.45;;;;;;;0.73;78.78;99037.07;1691055;83;21575;-56
2022/01/15 04:53:35;;;;;;;23.22;9.35;;;;;;;0.73;78.96;99033.89;1679302;85;21465;-56
2022/01/15 04:56:02;;;;;;;12.63;7.10;;;;;;;0.73;78.95;99035.73;1722067;82;21073;-56
2022/01/15 04:58:29;;;;;;;25.90;8.03;;;;;;;0.72;78.95;99036.76;1742280;82;21433;-56
2022/01/15 05:00:56;;;;;;;25.55;9.65;;;;;;;0.72;78.98;99046.09;1742165;82;21055;-56
2022/01/15 05:03:23;;;;;;;31.05;10.85;;;;;;;0.64;78.66;99045.71;1742569;82;21016;-55
2022/01/15 05:05:49;;;;;;;21.87;9.30;;;;;;;0.62;78.76;99046.42;1742060;82;21542;-56
2022/01/15 05:08:16;;;;;;;27.15;13.95;;;;;;;0.41;78.30;99052.55;1712510;83;21078;-56
2022/01/15 05:10:47;;;;;;;25.80;12.33;;;;;;;0.12;78.44;99054.81;1712582;82;21054;-56
2022/01/15 05:13:14;;;;;;;38.28;15.05;;;;;;;-0.09;78.64;99054.23;1712316;82;28052;-55
2022/01/15 05:15:44;;;;;;;35.25;12.15;;;;;;;-0.29;78.75;99054.50;1712514;82;21196;-56
2022/01/15 05:18:11;;;;;;;31.23;14.47;;;;;;;-0.46;79.00;99061.84;1736507;82;21255;-56
2022/01/15 05:20:43;;;;;;;25.08;10.90;;;;;;;-0.56;79.21;99058.64;1733271;82;21054;-56
2022/01/15 05:23:07;;;;;;;35.25;13.40;;;;;;;-0.68;79.35;99058.78;1712376;82;20988;-56
2022/01/15 05:25:34;;;;;;;41.58;19.23;;;;;;;-0.74;79.60;99059.00;1712399;82;21021;-56
2022/01/15 05:28:01;;;;;;;52.35;20.92;;;;;;;-0.67;79.92;99064.42;1734624;82;21020;-55
2022/01/15 05:30:30;;;;;;;54.60;22.27;;;;;;;-0.67;79.98;99065.25;1737260;82;21266;-56
2022/01/15 05:32:57;;;;;;;27.32;13.28;;;;;;;-0.68;80.14;99066.27;1736973;82;26245;-56
2022/01/15 05:35:26;;;;;;;33.55;15.43;;;;;;;-0.82;81.94;99066.23;1736779;82;21064;-56
2022/01/15 05:37:57;;;;;;;40.03;18.15;;;;;;;-0.83;80.70;99065.92;1716466;82;21054;-55
2022/01/15 05:40:24;;;;;;;39.42;18.12;;;;;;;-0.82;80.93;99067.56;1714351;82;21491;-57
2022/01/15 05:42:52;;;;;;;25.15;11.28;;;;;;;-0.97;82.95;99064.36;1737006;82;21535;-57
2022/01/15 05:45:24;;;;;;;42.33;20.48;;;;;;;-0.99;82.63;99063.72;1735854;82;21450;-56
2022/01/15 05:47:52;;;;;;;32.25;16.57;;;;;;;-0.95;81.58;99063.67;1726637;80;21012;-57
2022/01/15 05:50:19;;;;;;;43.48;21.57;;;;;;;-0.91;81.32;99063.66;1767540;80;21083;-55
2022/01/15 05:52:46;;;;;;;45.15;21.55;;;;;;;-0.91;81.09;99058.83;1737088;82;21080;-56
2022/01/15 05:55:13;;;;;;;35.43;20.70;;;;;;;-0.91;80.87;99062.83;1719027;82;21935;-56
2022/01/15 05:57:40;;;;;;;51.75;24.45;;;;;;;-1.02;82.00;99064.09;1735716;82;21501;-56
2022/01/15 06:00:08;;;;;;;41.45;21.85;;;;;;;-1.10;81.46;99072.14;1736871;82;21023;-56
2022/01/15 06:02:35;;;;;;;40.92;17.07;;;;;;;-1.15;81.90;99066.52;1737080;82;21457;-55
2022/01/15 06:05:03;;;;;;;42.38;21.52;;;;;;;-1.25;80.93;99066.77;1737057;82;21124;-56
2022/01/15 06:07:30;;;;;;;55.33;26.20;;;;;;;-1.32;80.90;99064.50;1731658;82;21480;-56
2022/01/15 06:09:57;;;;;;;52.15;26.07;;;;;;;-1.34;81.34;99063.03;1737027;82;21048;-56
2022/01/15 06:12:30;;;;;;;44.67;21.73;;;;;;;-1.31;81.34;99065.33;1715668;82;20980;-56
2022/01/15 06:14:53;;;;;;;33.50;16.73;;;;;;;-1.37;83.54;99070.02;1712374;83;25865;-56
2022/01/15 06:17:19;;;;;;;36.58;17.25;;;;;;;-1.43;82.43;99076.38;1727874;82;20997;-56
2022/01/15 06:19:46;;;;;;;58.00;22.10;;;;;;;-1.50;83.48;99071.95;1737222;82;21234;-56
2022/01/15 06:22:13;;;;;;;59.27;21.30;;;;;;;-1.60;84.40;99068.70;1722702;82;21003;-56
2022/01/15 06:24:40;;;;;;;57.70;20.12;;;;;;;-1.58;83.32;99072.83;1712791;83;21062;-55
2022/01/15 06:27:11;;;;;;;65.90;22.32;;;;;;;-1.52;83.21;99077.45;1712299;82;21067;-56
2022/01/15 06:29:36;;;;;;;50.63;20.20;;;;;;;-1.47;82.75;99071.08;1712375;83;21037;-56
2022/01/15 06:32:04;;;;;;;57.08;22.65;;;;;;;-1.45;82.62;99069.59;1718610;81;21943;-55
2022/01/15 06:34:31;;;;;;;62.20;28.47;;;;;;;-1.38;82.46;99070.52;1732682;82;21008;-57
2022/01/15 06:36:57;;;;;;;65.60;31.15;;;;;;;-1.36;82.32;99070.37;1722289;81;21067;-55
2022/01/15 06:39:24;;;;;;;61.58;37.35;;;;;;;-1.34;82.10;99071.83;1732873;82;21028;-56
2022/01/15 06:41:51;;;;;;;112.08;50.10;;;;;;;-1.37;81.95;99075.33;1734410;82;21457;-55
2022/01/15 06:44:18;;;;;;;76.33;41.70;;;;;;;-1.44;82.56;99077.89;1737341;82;21480;-56
2022/01/15 06:46:45;;;;;;;84.67;37.35;;;;;;;-1.50;82.18;99082.58;1721418;82;21034;-56
2022/01/15 06:49:12;;;;;;;128.12;55.35;;;;;;;-1.56;82.22;99081.95;1760870;80;20982;-56
2022/01/15 06:51:39;;;;;;;108.35;43.15;;;;;;;-1.53;82.07;99082.44;1747874;80;21035;-56
2022/01/15 06:54:05;;;;;;;95.67;38.55;;;;;;;-1.63;81.70;99090.30;1736985;82;21465;-56
2022/01/15 06:56:32;;;;;;;66.72;28.92;;;;;;;-1.73;83.63;99095.84;1731002;82;21402;-55
2022/01/15 06:58:59;;;;;;;69.25;27.62;;;;;;;-1.75;83.52;99101.84;1736944;82;21004;-56
2022/01/15 07:01:26;;;;;;;46.77;20.77;;;;;;;-1.72;83.27;99103.63;1721056;82;20992;-56
2022/01/15 07:03:53;;;;;;;48.98;19.25;;;;;;;-1.68;83.97;99100.14;1724871;82;20985;-55
2022/01/15 07:06:20;;;;;;;53.55;26.17;;;;;;;-1.64;84.57;99097.95;1737113;82;21000;-56
2022/01/15 07:08:47;;;;;;;46.02;21.65;;;;;;;-1.63;83.71;99105.74;1709713;82;21702;-55
2022/01/15 07:11:13;;;;;;;64.35;26.87;;;;;;;-1.62;83.76;99106.09;1709646;82;20963;-55
2022/01/15 07:13:40;;;;;;;74.42;35.98;;;;;;;-1.56;83.15;99101.38;1709138;83;21050;-55
2022/01/15 07:16:07;;;;;;;85.85;44.42;;;;;;;-1.53;82.65;99105.04;1710464;82;21081;-56
2022/01/15 07:18:34;;;;;;;57.88;27.90;;;;;;;-1.52;82.59;99107.20;1710924;83;21116;-56
2022/01/15 07:21:01;;;;;;;59.13;26.93;;;;;;;-1.53;82.84;99105.55;1706917;82;22108;-56
2022/01/15 07:23:28;;;;;;;87.92;47.10;;;;;;;-1.55;82.70;99112.84;1710746;82;21375;-57
2022/01/15 07:25:55;;;;;;;232.67;107.43;;;;;;;-1.58;82.42;99107.39;1710627;82;21031;-56
2022/01/15 07:28:24;;;;;;;69.50;36.30;;;;;;;-1.61;83.79;99118.88;1710932;83;21038;-56
2022/01/15 07:30:51;;;;;;;102.27;52.48;;;;;;;-1.59;83.71;99116.87;1717198;82;21052;-55
2022/01/15 07:33:18;;;;;;;50.28;27.93;;;;;;;-1.60;82.85;99122.69;1710725;82;21094;-56
2022/01/15 07:35:45;;;;;;;45.90;26.20;;;;;;;-1.56;82.79;99119.17;1717459;82;21516;-56
2022/01/15 07:38:13;;;;;;;62.17;31.57;;;;;;;-1.57;82.98;99121.50;1670726;84;21032;-56
2022/01/15 07:40:41;;;;;;;48.17;24.10;;;;;;;-1.56;83.88;99122.65;1717320;82;21528;-55
2022/01/15 07:43:08;;;;;;;72.82;42.80;;;;;;;-1.46;83.12;99124.58;1709412;82;21139;-56
2022/01/15 07:45:35;;;;;;;57.75;30.43;;;;;;;-1.45;83.87;99128.92;1725246;82;21351;-56
2022/01/15 07:48:02;;;;;;;50.55;24.98;;;;;;;-1.38;84.77;99123.70;1720820;82;20977;-56
2022/01/15 07:50:29;;;;;;;62.40;32.38;;;;;;;-1.27;83.77;99131.80;1730160;82;21127;-56
2022/01/15 07:52:57;;;;;;;57.05;25.35;;;;;;;-1.19;84.43;99122.43;1710987;82;20996;-56
2022/01/15 07:55:24;;;;;;;66.07;31.68;;;;;;;-1.10;83.59;99127.19;1711652;82;21089;-56
2022/01/15 07:57:51;;;;;;;53.13;25.52;;;;;;;-1.03;84.18;99124.94;1735385;82;21680;-56
2022/01/15 08:00:18;;;;;;;81.37;32.78;;;;;;;-0.94;84.35;99129.69;1735470;82;21470;-56
2022/01/15 08:02:45;;;;;;;114.95;58.98;;;;;;;-0.81;83.58;99120.61;1735457;82;21099;-56
2022/01/15 08:05:12;;;;;;;118.42;90.20;;;;;;;-0.82;83.72;99124.28;1715789;82;21025;-56
2022/01/15 08:07:40;;;;;;;65.03;34.15;;;;;;;-0.79;84.05;99123.91;1699851;82;21080;-56
2022/01/15 08:10:08;;;;;;;52.07;23.63;;;;;;;-0.67;83.82;99123.82;1716277;82;22015;-56
2022/01/15 08:12:43;;;;;;;37.88;20.17;;;;;;;-0.58;83.76;99123.23;1721550;82;21504;-56
2022/01/15 08:15:10;;;;;;;31.57;17.32;;;;;;;-0.50;83.77;99123.66;1732406;82;21900;-55
2022/01/15 08:17:37;;;;;;;58.63;34.03;;;;;;;-0.41;83.27;99117.24;1679376;84;21005;-56
2022/01/15 08:20:05;;;;;;;78.80;40.73;;;;;;;-0.36;83.35;99117.50;1706441;82;21090;-57
2022/01/15 08:22:32;;;;;;;62.17;31.07;;;;;;;-0.30;83.15;99118.11;1721045;82;21648;-56
2022/01/15 08:24:59;;;;;;;72.97;36.00;;;;;;;-0.13;83.06;99122.75;1709753;82;21001;-57
2022/01/15 08:27:25;;;;;;;76.85;33.05;;;;;;;0.03;82.99;99122.56;1715329;82;21137;-55
2022/01/15 08:29:52;;;;;;;65.85;30.68;;;;;;;0.13;82.86;99127.61;1712410;82;21084;-55
2022/01/15 08:32:19;;;;;;;60.83;27.58;;;;;;;0.19;82.28;99129.03;1699570;82;21115;-56
2022/01/15 08:34:46;;;;;;;53.05;18.30;;;;;;;0.28;82.63;99133.75;1717396;82;21540;-56
2022/01/15 08:37:13;;;;;;;54.90;24.82;;;;;;;0.39;78.76;99132.44;1718703;82;21053;-56
2022/01/15 08:39:40;;;;;;;34.33;15.65;;;;;;;0.58;80.72;99133.67;1705910;82;21111;-56
2022/01/15 08:42:09;;;;;;;37.58;13.75;;;;;;;0.77;81.58;99130.38;1709012;82;20989;-57
2022/01/15 08:44:40;;;;;;;50.28;17.17;;;;;;;0.95;79.90;99134.80;1705838;84;20996;-56
2022/01/15 08:47:05;;;;;;;44.03;15.85;;;;;;;1.10;80.40;99126.18;1692298;82;20984;-56
2022/01/15 08:49:31;;;;;;;24.37;10.13;;;;;;;1.24;80.12;99132.47;1731992;82;21181;-57
2022/01/15 08:51:58;;;;;;;27.25;11.85;;;;;;;1.37;78.40;99131.77;1714402;82;21514;-56
2022/01/15 08:54:25;;;;;;;34.08;14.07;;;;;;;1.44;79.18;99132.63;1710374;83;20968;-56
2022/01/15 08:56:52;;;;;;;18.12;9.80;;;;;;;1.54;79.14;99129.61;1704195;82;21119;-56
2022/01/15 08:59:19;;;;;;;24.37;10.20;;;;;;;1.60;75.31;99139.53;1705829;82;20987;-55
2022/01/15 09:01:46;;;;;;;20.17;14.13;;;;;;;1.67;77.26;99135.89;1723252;82;21484;-56
2022/01/15 09:04:13;;;;;;;16.37;6.70;;;;;;;1.75;76.22;99136.25;1735111;82;21016;-56
2022/01/15 09:06:40;;;;;;;19.05;9.30;;;;;;;1.81;75.93;99144.83;1726150;82;21160;-57
2022/01/15 09:09:06;;;;;;;53.42;18.77;;;;;;;1.88;75.98;99145.70;1719267;82;21103;-58
2022/01/15 09:11:33;;;;;;;28.10;12.10;;;;;;;1.98;76.81;99143.49;1734962;82;21040;-57
2022/01/15 09:14:00;;;;;;;15.45;7.40;;;;;;;2.08;74.70;99143.12;1721613;82;21074;-58
2022/01/15 09:16:27;;;;;;;15.20;5.42;;;;;;;2.16;73.83;99144.30;1709678;82;21533;-58
2022/01/15 09:18:56;;;;;;;13.78;5.20;;;;;;;2.15;72.46;99143.99;1715084;82;21024;-58
2022/01/15 09:21:24;;;;;;;15.85;5.40;;;;;;;2.20;73.50;99135.36;1702372;82;21181;-56
2022/01/15 09:23:51;;;;;;;43.23;31.30;;;;;;;2.26;72.39;99147.95;1706634;82;21425;-56
2022/01/15 09:26:19;;;;;;;13.85;7.75;;;;;;;2.19;63.12;99149.76;1706977;82;21831;-56
2022/01/15 09:31:32;;;;;;;15.18;6.95;;;;;;;2.35;71.09;99137.39;1710521;82;21019;-55
2022/01/15 09:33:59;;;;;;;13.70;7.17;;;;;;;2.38;70.32;99139.66;1710509;83;21050;-56
2022/01/15 09:36:25;;;;;;;10.23;4.97;;;;;;;2.39;68.99;99133.27;1711978;82;21067;-55
2022/01/15 09:38:52;;;;;;;14.63;5.37;;;;;;;2.40;70.04;99130.94;1735345;82;21524;-56
2022/01/15 09:41:19;;;;;;;16.35;6.12;;;;;;;2.46;70.22;99130.12;1724708;82;21552;-55
2022/01/15 09:43:47;;;;;;;15.45;6.85;;;;;;;2.49;69.25;99127.06;1720034;82;21043;-55
2022/01/15 09:46:14;;;;;;;11.90;5.17;;;;;;;2.51;67.13;99133.55;1716217;82;21115;-56
2022/01/15 09:48:40;;;;;;;9.70;6.08;;;;;;;2.56;68.09;99131.07;1677121;82;21672;-56
2022/01/15 09:51:07;;;;;;;13.53;4.92;;;;;;;2.57;66.38;99132.75;1663627;82;21000;-56
2022/01/15 09:53:34;;;;;;;16.65;10.30;;;;;;;2.61;67.97;99130.48;1717356;82;21079;-56
2022/01/15 09:56:05;;;;;;;31.17;20.30;;;;;;;2.60;61.73;99131.52;1676303;84;21057;-55
2022/01/15 09:58:30;;;;;;;22.15;17.95;;;;;;;2.65;64.62;99137.92;1719701;82;21131;-56
2022/01/15 10:00:57;;;;;;;23.65;8.48;;;;;;;2.59;60.82;99134.70;1714595;82;21036;-56
2022/01/15 10:03:23;;;;;;;42.35;16.27;;;;;;;2.73;64.40;99130.19;1727866;82;21395;-57
2022/01/15 10:05:50;;;;;;;51.98;20.32;;;;;;;2.72;62.94;99133.91;1711878;82;21036;-56
2022/01/15 10:08:19;;;;;;;22.77;13.72;;;;;;;2.74;62.83;99131.87;1714065;82;21087;-56
2022/01/15 10:10:48;;;;;;;19.80;8.85;;;;;;;2.74;60.49;99132.70;1723894;82;21040;-56
2022/01/15 10:13:23;;;;;;;16.00;8.05;;;;;;;2.68;60.30;99132.16;1712945;82;21897;-55
2022/01/15 10:16:02;;;;;;;12.58;5.05;;;;;;;2.71;62.04;99125.05;1705912;82;21083;-56
2022/01/15 10:18:31;;;;;;;10.15;4.70;;;;;;;2.66;56.96;99128.04;1709476;82;21055;-56
2022/01/15 10:21:13;;;;;;;;;;;;;;;2.73;58.05;99130.19;1711308;82;21553;-56
2022/01/15 10:23:54;;;;;;;18.15;7.62;;;;;;;2.79;60.30;99122.70;1688335;84;20521;-56
2022/01/15 10:26:27;;;;;;;16.73;10.93;;;;;;;2.80;60.11;99121.16;1679244;84;21282;-56
2022/01/15 10:28:58;;;;;;;19.00;11.05;;;;;;;2.82;61.44;99123.14;1663579;85;21687;-56
2022/01/15 10:31:31;;;;;;;14.10;6.92;;;;;;;2.89;62.21;99118.29;1723578;82;21064;-56
2022/01/15 10:34:00;;;;;;;20.37;14.55;;;;;;;2.98;62.50;99113.88;1723172;82;21056;-56
2022/01/15 10:36:30;;;;;;;14.55;7.17;;;;;;;2.91;57.46;99128.30;1692463;82;22173;-56
2022/01/15 10:39:16;;;;;;;17.35;8.65;;;;;;;2.98;60.66;99123.76;1717709;82;21104;-56
2022/01/15 10:41:43;;;;;;;17.20;5.83;;;;;;;3.04;62.28;99123.77;1694419;82;21019;-56
2022/01/15 10:44:30;;;;;;;17.02;6.12;;;;;;;3.10;61.71;99131.52;1712881;82;21745;-56
2022/01/15 10:47:12;;;;;;;32.42;28.95;;;;;;;3.13;61.73;99129.76;1722042;82;21099;-56
2022/01/15 10:49:40;;;;;;;14.30;6.45;;;;;;;3.07;59.32;99130.56;1737933;80;21154;-56
2022/01/15 10:52:19;;;;;;;17.57;7.70;;;;;;;2.95;58.18;99130.88;1713651;82;21008;-56
2022/01/15 10:54:58;;;;;;;14.05;6.12;;;;;;;3.06;61.40;99143.65;1723567;82;21995;-56
2022/01/15 10:57:32;;;;;;;24.67;12.10;;;;;;;3.14;61.63;99142.63;1723036;82;21068;-56
2022/01/15 11:00:17;;;;;;;286.25;180.32;;;;;;;3.18;61.46;99147.91;1732828;82;21044;-56
2022/01/15 11:02:48;;;;;;;17.30;11.45;;;;;;;3.07;59.43;99138.60;1734480;82;21017;-56
2022/01/15 11:05:44;;;;;;;22.82;12.03;;;;;;;2.86;58.97;99146.30;1718270;82;21011;-56
2022/01/15 11:08:26;;;;;;;30.75;11.83;;;;;;;2.94;61.00;99133.25;1736487;82;21033;-56
2022/01/15 11:11:02;;;;;;;20.92;14.18;;;;;;;3.01;61.73;99138.10;1717163;82;21030;-56
2022/01/15 11:13:41;;;;;;;47.62;17.23;;;;;;;2.94;59.50;99134.06;1732090;80;21438;-56
2022/01/15 11:16:14;;;;;;;157.35;51.02;;;;;;;2.99;59.77;99133.44;1689147;83;21487;-56
2022/01/15 11:18:43;;;;;;;22.48;10.80;;;;;;;3.05;60.83;99132.63;1732447;82;21107;-56
2022/01/15 11:21:15;;;;;;;71.90;26.35;;;;;;;3.00;60.68;99125.23;1725221;82;21562;-56
2022/01/15 11:23:43;;;;;;;72.05;22.60;;;;;;;3.09;60.13;99134.71;1712439;83;21054;-56
2022/01/15 11:26:16;;;;;;;26.87;10.90;;;;;;;3.03;58.71;99130.68;1721998;82;21040;-56
2022/01/15 11:28:43;;;;;;;19.32;11.57;;;;;;;3.02;59.67;99131.71;1711889;82;21201;-56
2022/01/15 11:31:20;;;;;;;27.10;9.70;;;;;;;2.86;57.75;99123.55;1712355;82;21421;-56
2022/01/15 11:33:50;;;;;;;124.38;43.45;;;;;;;2.90;59.88;99123.44;1734264;82;21076;-56
2022/01/15 11:36:36;;;;;;;29.60;11.30;;;;;;;2.96;60.40;99119.95;1725886;82;21023;-56
2022/01/15 11:39:10;;;;;;;23.57;9.05;;;;;;;2.90;60.53;99123.44;1729237;82;21028;-56
2022/01/15 11:41:42;;;;;;;28.83;14.68;;;;;;;2.92;61.04;99129.44;1728872;82;21072;-56
2022/01/15 11:44:15;;;;;;;13.10;7.08;;;;;;;2.88;60.21;99136.20;1707603;83;21440;-56
2022/01/15 11:46:52;;;;;;;20.08;8.58;;;;;;;2.92;60.04;99137.47;1710257;82;21022;-56
2022/01/15 11:49:44;;;;;;;19.90;11.10;;;;;;;2.93;60.76;99142.31;1725237;80;21076;-56
2022/01/15 11:52:22;;;;;;;23.07;10.30;;;;;;;2.81;60.15;99134.84;1713526;82;21055;-56
2022/01/15 11:55:03;;;;;;;32.35;9.68;;;;;;;2.87;60.62;99131.06;1720703;82;21429;-56
2022/01/15 11:57:33;;;;;;;33.88;11.93;;;;;;;2.91;61.01;99128.30;1706180;82;21416;-56